Terminal Aerodrome Forecast
Issued by NWS

Home | Current Version | Previous Version | Text Only | Print | Product List | Glossary On
Versions: 1 2 3 4 5 6 7 8 9 10 11 12 13 14 15
000
FTUS45 KGGW 280531
TAFGDV
TAF
KGDV 280531Z 2806/2906 04005KT P6SM BKN080
     FM281500 17005KT P6SM VCSH BKN050
     FM290000 31010KT P6SM FEW200
      AMD LTD TO CLD VIS AND WIND=

USA.gov is the U.S. government's official web portal to all federal, state and local government web resources and services.